sensor_id;sensor_type;location;lat;lon;timestamp;P1;durP1;ratioP1;P2;durP2;ratioP2
16965;SDS011;8599;47.852;12.070;2023-02-15T00:01:23;19.93;;;9.00;;
16965;SDS011;8599;47.852;12.070;2023-02-15T00:03:50;12.73;;;8.47;;
16965;SDS011;8599;47.852;12.070;2023-02-15T00:06:18;30.03;;;8.67;;
16965;SDS011;8599;47.852;12.070;2023-02-15T00:08:45;16.90;;;9.57;;
16965;SDS011;8599;47.852;12.070;2023-02-15T00:11:12;11.60;;;7.90;;
16965;SDS011;8599;47.852;12.070;2023-02-15T00:13:40;26.33;;;9.17;;
16965;SDS011;8599;47.852;12.070;2023-02-15T00:16:08;17.43;;;8.50;;
16965;SDS011;8599;47.852;12.070;2023-02-15T00:18:36;20.20;;;8.80;;
16965;SDS011;8599;47.852;12.070;2023-02-15T00:21:04;12.07;;;7.77;;
16965;SDS011;8599;47.852;12.070;2023-02-15T00:23:34;23.30;;;9.00;;
16965;SDS011;8599;47.852;12.070;2023-02-15T00:26:04;10.87;;;7.67;;
16965;SDS011;8599;47.852;12.070;2023-02-15T00:28:32;16.87;;;8.27;;
16965;SDS011;8599;47.852;12.070;2023-02-15T00:31:03;13.00;;;8.67;;
16965;SDS011;8599;47.852;12.070;2023-02-15T00:33:31;15.57;;;9.30;;
16965;SDS011;8599;47.852;12.070;2023-02-15T00:35:59;20.27;;;8.80;;
16965;SDS011;8599;47.852;12.070;2023-02-15T00:38:26;18.30;;;8.70;;
16965;SDS011;8599;47.852;12.070;2023-02-15T00:40:56;12.47;;;8.30;;
16965;SDS011;8599;47.852;12.070;2023-02-15T00:43:24;34.87;;;9.33;;
16965;SDS011;8599;47.852;12.070;2023-02-15T00:45:52;15.53;;;8.80;;
16965;SDS011;8599;47.852;12.070;2023-02-15T00:48:19;15.70;;;8.53;;
16965;SDS011;8599;47.852;12.070;2023-02-15T00:50:48;22.73;;;9.43;;
16965;SDS011;8599;47.852;12.070;2023-02-15T00:53:17;16.17;;;8.13;;
16965;SDS011;8599;47.852;12.070;2023-02-15T00:55:44;12.67;;;8.67;;
16965;SDS011;8599;47.852;12.070;2023-02-15T00:58:12;13.27;;;9.00;;
16965;SDS011;8599;47.852;12.070;2023-02-15T01:00:40;15.87;;;9.00;;
16965;SDS011;8599;47.852;12.070;2023-02-15T01:03:08;24.10;;;8.83;;
16965;SDS011;8599;47.852;12.070;2023-02-15T01:05:35;25.67;;;8.70;;
16965;SDS011;8599;47.852;12.070;2023-02-15T01:08:02;20.37;;;8.77;;
16965;SDS011;8599;47.852;12.070;2023-02-15T01:10:29;20.67;;;9.00;;
16965;SDS011;8599;47.852;12.070;2023-02-15T01:12:57;12.93;;;8.77;;
16965;SDS011;8599;47.852;12.070;2023-02-15T01:15:25;14.60;;;8.13;;
16965;SDS011;8599;47.852;12.070;2023-02-15T01:17:52;15.57;;;8.57;;
16965;SDS011;8599;47.852;12.070;2023-02-15T01:20:19;15.47;;;8.37;;
16965;SDS011;8599;47.852;12.070;2023-02-15T01:22:47;16.37;;;8.30;;
16965;SDS011;8599;47.852;12.070;2023-02-15T01:25:15;12.83;;;7.93;;
16965;SDS011;8599;47.852;12.070;2023-02-15T01:27:42;11.80;;;8.20;;
16965;SDS011;8599;47.852;12.070;2023-02-15T01:30:09;14.67;;;7.97;;
16965;SDS011;8599;47.852;12.070;2023-02-15T01:32:38;18.20;;;8.23;;
16965;SDS011;8599;47.852;12.070;2023-02-15T01:35:06;14.20;;;8.57;;
16965;SDS011;8599;47.852;12.070;2023-02-15T01:37:33;12.20;;;8.67;;
16965;SDS011;8599;47.852;12.070;2023-02-15T01:40:00;12.10;;;9.13;;
16965;SDS011;8599;47.852;12.070;2023-02-15T01:42:28;13.57;;;8.33;;
16965;SDS011;8599;47.852;12.070;2023-02-15T01:44:56;11.97;;;8.67;;
16965;SDS011;8599;47.852;12.070;2023-02-15T01:47:26;15.17;;;9.20;;
16965;SDS011;8599;47.852;12.070;2023-02-15T01:50:01;10.10;;;7.63;;
16965;SDS011;8599;47.852;12.070;2023-02-15T01:52:32;13.47;;;7.97;;
16965;SDS011;8599;47.852;12.070;2023-02-15T01:55:00;13.27;;;7.43;;
16965;SDS011;8599;47.852;12.070;2023-02-15T01:57:27;15.87;;;8.20;;
16965;SDS011;8599;47.852;12.070;2023-02-15T01:59:55;17.70;;;8.20;;
16965;SDS011;8599;47.852;12.070;2023-02-15T02:02:24;20.47;;;7.77;;
16965;SDS011;8599;47.852;12.070;2023-02-15T02:04:52;13.50;;;8.93;;
16965;SDS011;8599;47.852;12.070;2023-02-15T02:07:26;15.47;;;8.97;;
16965;SDS011;8599;47.852;12.070;2023-02-15T02:09:54;17.53;;;8.53;;
16965;SDS011;8599;47.852;12.070;2023-02-15T02:12:21;12.70;;;8.37;;
16965;SDS011;8599;47.852;12.070;2023-02-15T02:14:50;14.27;;;8.53;;
16965;SDS011;8599;47.852;12.070;2023-02-15T02:17:20;15.70;;;9.03;;
16965;SDS011;8599;47.852;12.070;2023-02-15T02:23:07;11.33;;;8.00;;
16965;SDS011;8599;47.852;12.070;2023-02-15T02:25:59;13.00;;;8.73;;
16965;SDS011;8599;47.852;12.070;2023-02-15T02:28:57;24.07;;;8.60;;
16965;SDS011;8599;47.852;12.070;2023-02-15T02:32:05;11.07;;;8.23;;
16965;SDS011;8599;47.852;12.070;2023-02-15T02:34:50;12.83;;;8.63;;
16965;SDS011;8599;47.852;12.070;2023-02-15T02:37:23;22.43;;;8.27;;
16965;SDS011;8599;47.852;12.070;2023-02-15T02:39:55;20.40;;;9.53;;
16965;SDS011;8599;47.852;12.070;2023-02-15T02:42:31;26.47;;;8.70;;
16965;SDS011;8599;47.852;12.070;2023-02-15T02:45:02;21.93;;;8.70;;
16965;SDS011;8599;47.852;12.070;2023-02-15T02:47:33;15.23;;;8.57;;
16965;SDS011;8599;47.852;12.070;2023-02-15T02:50:08;22.20;;;9.23;;
16965;SDS011;8599;47.852;12.070;2023-02-15T02:52:40;15.83;;;8.97;;
16965;SDS011;8599;47.852;12.070;2023-02-15T02:55:09;17.07;;;9.00;;
16965;SDS011;8599;47.852;12.070;2023-02-15T02:57:43;14.50;;;8.20;;
16965;SDS011;8599;47.852;12.070;2023-02-15T03:00:15;13.17;;;8.57;;
16965;SDS011;8599;47.852;12.070;2023-02-15T03:02:44;16.80;;;9.53;;
16965;SDS011;8599;47.852;12.070;2023-02-15T03:05:16;11.17;;;8.10;;
16965;SDS011;8599;47.852;12.070;2023-02-15T03:07:48;13.90;;;9.20;;
16965;SDS011;8599;47.852;12.070;2023-02-15T03:10:18;14.37;;;9.33;;
16965;SDS011;8599;47.852;12.070;2023-02-15T03:12:48;16.53;;;9.13;;
16965;SDS011;8599;47.852;12.070;2023-02-15T03:15:16;16.50;;;8.63;;
16965;SDS011;8599;47.852;12.070;2023-02-15T03:17:47;18.60;;;8.97;;
16965;SDS011;8599;47.852;12.070;2023-02-15T03:20:20;17.00;;;9.30;;
16965;SDS011;8599;47.852;12.070;2023-02-15T03:22:53;19.53;;;8.87;;
16965;SDS011;8599;47.852;12.070;2023-02-15T03:25:23;16.37;;;8.83;;
16965;SDS011;8599;47.852;12.070;2023-02-15T03:27:54;13.97;;;9.50;;
16965;SDS011;8599;47.852;12.070;2023-02-15T03:30:24;13.47;;;9.13;;
16965;SDS011;8599;47.852;12.070;2023-02-15T03:32:52;18.67;;;9.07;;
16965;SDS011;8599;47.852;12.070;2023-02-15T03:35:22;14.33;;;7.93;;
16965;SDS011;8599;47.852;12.070;2023-02-15T03:37:53;13.73;;;9.07;;
16965;SDS011;8599;47.852;12.070;2023-02-15T03:40:26;17.40;;;8.50;;
16965;SDS011;8599;47.852;12.070;2023-02-15T03:43:14;11.50;;;8.70;;
16965;SDS011;8599;47.852;12.070;2023-02-15T03:45:45;16.70;;;10.17;;
16965;SDS011;8599;47.852;12.070;2023-02-15T03:48:21;20.23;;;10.80;;
16965;SDS011;8599;47.852;12.070;2023-02-15T03:50:53;16.50;;;9.87;;
16965;SDS011;8599;47.852;12.070;2023-02-15T03:53:41;14.47;;;9.70;;
16965;SDS011;8599;47.852;12.070;2023-02-15T03:56:09;13.47;;;9.20;;
16965;SDS011;8599;47.852;12.070;2023-02-15T03:58:36;15.87;;;9.70;;
16965;SDS011;8599;47.852;12.070;2023-02-15T04:01:22;14.53;;;9.80;;
16965;SDS011;8599;47.852;12.070;2023-02-15T04:04:15;17.07;;;9.30;;
16965;SDS011;8599;47.852;12.070;2023-02-15T04:06:46;14.27;;;8.67;;
16965;SDS011;8599;47.852;12.070;2023-02-15T04:09:13;16.80;;;10.20;;
16965;SDS011;8599;47.852;12.070;2023-02-15T04:11:58;20.67;;;8.80;;
16965;SDS011;8599;47.852;12.070;2023-02-15T04:14:25;21.47;;;9.47;;
16965;SDS011;8599;47.852;12.070;2023-02-15T04:17:09;12.63;;;7.87;;
16965;SDS011;8599;47.852;12.070;2023-02-15T04:19:36;23.83;;;8.67;;
16965;SDS011;8599;47.852;12.070;2023-02-15T04:22:22;14.37;;;9.07;;
16965;SDS011;8599;47.852;12.070;2023-02-15T04:25:06;15.20;;;8.63;;
16965;SDS011;8599;47.852;12.070;2023-02-15T04:27:36;14.70;;;9.33;;
16965;SDS011;8599;47.852;12.070;2023-02-15T04:30:03;13.60;;;7.90;;
16965;SDS011;8599;47.852;12.070;2023-02-15T04:32:31;14.20;;;8.00;;
16965;SDS011;8599;47.852;12.070;2023-02-15T04:34:58;15.40;;;9.80;;
16965;SDS011;8599;47.852;12.070;2023-02-15T04:37:26;12.40;;;8.93;;
16965;SDS011;8599;47.852;12.070;2023-02-15T04:39:53;14.27;;;9.13;;
16965;SDS011;8599;47.852;12.070;2023-02-15T04:42:20;26.27;;;9.53;;
16965;SDS011;8599;47.852;12.070;2023-02-15T04:44:46;14.13;;;9.00;;
16965;SDS011;8599;47.852;12.070;2023-02-15T04:47:13;15.70;;;9.00;;
16965;SDS011;8599;47.852;12.070;2023-02-15T04:49:40;15.63;;;8.70;;
16965;SDS011;8599;47.852;12.070;2023-02-15T04:52:07;14.87;;;9.20;;
16965;SDS011;8599;47.852;12.070;2023-02-15T04:54:35;14.00;;;8.70;;
16965;SDS011;8599;47.852;12.070;2023-02-15T04:57:03;16.03;;;9.40;;
16965;SDS011;8599;47.852;12.070;2023-02-15T04:59:30;15.67;;;9.63;;
16965;SDS011;8599;47.852;12.070;2023-02-15T05:01:57;14.17;;;8.67;;
16965;SDS011;8599;47.852;12.070;2023-02-15T05:04:24;16.47;;;8.30;;
16965;SDS011;8599;47.852;12.070;2023-02-15T05:06:50;12.10;;;8.17;;
16965;SDS011;8599;47.852;12.070;2023-02-15T05:09:17;22.27;;;8.83;;
16965;SDS011;8599;47.852;12.070;2023-02-15T05:11:45;15.67;;;8.80;;
16965;SDS011;8599;47.852;12.070;2023-02-15T05:14:12;17.83;;;9.33;;
16965;SDS011;8599;47.852;12.070;2023-02-15T05:16:39;20.67;;;8.00;;
16965;SDS011;8599;47.852;12.070;2023-02-15T05:19:06;12.90;;;8.50;;
16965;SDS011;8599;47.852;12.070;2023-02-15T05:21:33;28.40;;;8.17;;
16965;SDS011;8599;47.852;12.070;2023-02-15T05:24:00;16.43;;;8.43;;
16965;SDS011;8599;47.852;12.070;2023-02-15T05:26:48;13.40;;;8.67;;
16965;SDS011;8599;47.852;12.070;2023-02-15T05:29:32;15.07;;;8.10;;
16965;SDS011;8599;47.852;12.070;2023-02-15T05:31:59;19.33;;;9.33;;
16965;SDS011;8599;47.852;12.070;2023-02-15T05:34:27;11.30;;;7.80;;
16965;SDS011;8599;47.852;12.070;2023-02-15T05:36:54;13.40;;;8.00;;
16965;SDS011;8599;47.852;12.070;2023-02-15T05:39:20;12.03;;;7.83;;
16965;SDS011;8599;47.852;12.070;2023-02-15T05:41:49;12.63;;;8.30;;
16965;SDS011;8599;47.852;12.070;2023-02-15T05:44:16;11.67;;;8.03;;
16965;SDS011;8599;47.852;12.070;2023-02-15T05:46:42;16.83;;;8.27;;
16965;SDS011;8599;47.852;12.070;2023-02-15T05:49:09;17.50;;;9.07;;
16965;SDS011;8599;47.852;12.070;2023-02-15T05:51:36;14.27;;;8.70;;
16965;SDS011;8599;47.852;12.070;2023-02-15T05:54:03;12.00;;;8.67;;
16965;SDS011;8599;47.852;12.070;2023-02-15T05:56:30;15.20;;;9.23;;
16965;SDS011;8599;47.852;12.070;2023-02-15T05:58:58;13.50;;;8.40;;
16965;SDS011;8599;47.852;12.070;2023-02-15T06:01:25;13.27;;;8.83;;
16965;SDS011;8599;47.852;12.070;2023-02-15T06:03:51;16.83;;;9.50;;
16965;SDS011;8599;47.852;12.070;2023-02-15T06:06:19;14.47;;;9.47;;
16965;SDS011;8599;47.852;12.070;2023-02-15T06:08:46;17.23;;;8.90;;
16965;SDS011;8599;47.852;12.070;2023-02-15T06:11:12;12.77;;;8.73;;
16965;SDS011;8599;47.852;12.070;2023-02-15T06:13:39;15.40;;;8.50;;
16965;SDS011;8599;47.852;12.070;2023-02-15T06:16:07;12.23;;;8.70;;
16965;SDS011;8599;47.852;12.070;2023-02-15T06:18:34;14.23;;;8.37;;
16965;SDS011;8599;47.852;12.070;2023-02-15T06:21:01;12.77;;;8.37;;
16965;SDS011;8599;47.852;12.070;2023-02-15T06:23:28;12.47;;;8.60;;
16965;SDS011;8599;47.852;12.070;2023-02-15T06:25:55;15.63;;;8.53;;
16965;SDS011;8599;47.852;12.070;2023-02-15T06:28:22;13.83;;;9.13;;
16965;SDS011;8599;47.852;12.070;2023-02-15T06:30:50;11.57;;;8.67;;
16965;SDS011;8599;47.852;12.070;2023-02-15T06:33:18;14.07;;;8.83;;
16965;SDS011;8599;47.852;12.070;2023-02-15T06:35:45;14.13;;;8.70;;
16965;SDS011;8599;47.852;12.070;2023-02-15T06:38:12;14.33;;;9.43;;
16965;SDS011;8599;47.852;12.070;2023-02-15T06:40:39;21.33;;;9.90;;
16965;SDS011;8599;47.852;12.070;2023-02-15T06:43:06;16.23;;;9.80;;
16965;SDS011;8599;47.852;12.070;2023-02-15T06:45:33;15.73;;;9.77;;
16965;SDS011;8599;47.852;12.070;2023-02-15T06:47:59;14.43;;;9.80;;
16965;SDS011;8599;47.852;12.070;2023-02-15T06:50:28;16.53;;;9.30;;
16965;SDS011;8599;47.852;12.070;2023-02-15T06:52:57;15.63;;;9.80;;
16965;SDS011;8599;47.852;12.070;2023-02-15T06:55:25;14.13;;;9.43;;
16965;SDS011;8599;47.852;12.070;2023-02-15T06:57:52;13.70;;;9.07;;
16965;SDS011;8599;47.852;12.070;2023-02-15T07:00:19;14.67;;;9.83;;
16965;SDS011;8599;47.852;12.070;2023-02-15T07:02:48;15.23;;;10.23;;
16965;SDS011;8599;47.852;12.070;2023-02-15T07:05:20;17.90;;;9.10;;
16965;SDS011;8599;47.852;12.070;2023-02-15T07:07:48;14.53;;;9.70;;
16965;SDS011;8599;47.852;12.070;2023-02-15T07:10:15;16.57;;;9.17;;
16965;SDS011;8599;47.852;12.070;2023-02-15T07:12:42;14.40;;;8.93;;
16965;SDS011;8599;47.852;12.070;2023-02-15T07:15:09;20.90;;;9.13;;
16965;SDS011;8599;47.852;12.070;2023-02-15T07:17:37;14.53;;;8.77;;
16965;SDS011;8599;47.852;12.070;2023-02-15T07:20:04;26.73;;;9.80;;
16965;SDS011;8599;47.852;12.070;2023-02-15T07:22:33;11.93;;;8.50;;
16965;SDS011;8599;47.852;12.070;2023-02-15T07:25:02;20.93;;;9.53;;
16965;SDS011;8599;47.852;12.070;2023-02-15T07:27:30;15.47;;;9.30;;
16965;SDS011;8599;47.852;12.070;2023-02-15T07:29:57;17.73;;;9.33;;
16965;SDS011;8599;47.852;12.070;2023-02-15T07:32:26;17.13;;;10.50;;
16965;SDS011;8599;47.852;12.070;2023-02-15T07:34:54;16.70;;;9.33;;
16965;SDS011;8599;47.852;12.070;2023-02-15T07:37:20;16.57;;;10.37;;
16965;SDS011;8599;47.852;12.070;2023-02-15T07:39:47;21.63;;;10.80;;
16965;SDS011;8599;47.852;12.070;2023-02-15T07:42:16;16.03;;;10.10;;
16965;SDS011;8599;47.852;12.070;2023-02-15T07:44:42;17.50;;;9.50;;
16965;SDS011;8599;47.852;12.070;2023-02-15T07:47:09;16.67;;;10.20;;
16965;SDS011;8599;47.852;12.070;2023-02-15T07:49:37;18.97;;;9.57;;
16965;SDS011;8599;47.852;12.070;2023-02-15T07:52:04;13.57;;;9.27;;
16965;SDS011;8599;47.852;12.070;2023-02-15T07:54:31;24.17;;;11.13;;
16965;SDS011;8599;47.852;12.070;2023-02-15T07:56:57;21.00;;;9.97;;
16965;SDS011;8599;47.852;12.070;2023-02-15T07:59:27;16.33;;;10.03;;
16965;SDS011;8599;47.852;12.070;2023-02-15T08:01:54;18.33;;;10.13;;
16965;SDS011;8599;47.852;12.070;2023-02-15T08:04:22;16.97;;;9.57;;
16965;SDS011;8599;47.852;12.070;2023-02-15T08:06:51;19.73;;;9.37;;
16965;SDS011;8599;47.852;12.070;2023-02-15T08:09:19;14.17;;;9.90;;
16965;SDS011;8599;47.852;12.070;2023-02-15T08:11:46;24.40;;;10.80;;
16965;SDS011;8599;47.852;12.070;2023-02-15T08:14:14;17.43;;;9.47;;
16965;SDS011;8599;47.852;12.070;2023-02-15T08:16:44;13.37;;;9.10;;
16965;SDS011;8599;47.852;12.070;2023-02-15T08:19:13;18.63;;;9.10;;
16965;SDS011;8599;47.852;12.070;2023-02-15T08:21:42;15.60;;;9.73;;
16965;SDS011;8599;47.852;12.070;2023-02-15T08:24:11;19.47;;;10.23;;
16965;SDS011;8599;47.852;12.070;2023-02-15T08:26:41;17.47;;;9.10;;
16965;SDS011;8599;47.852;12.070;2023-02-15T08:29:10;16.83;;;9.97;;
16965;SDS011;8599;47.852;12.070;2023-02-15T08:31:37;17.23;;;10.80;;
16965;SDS011;8599;47.852;12.070;2023-02-15T08:34:07;14.40;;;10.23;;
16965;SDS011;8599;47.852;12.070;2023-02-15T08:36:34;25.60;;;10.50;;
16965;SDS011;8599;47.852;12.070;2023-02-15T08:39:02;18.77;;;10.27;;
16965;SDS011;8599;47.852;12.070;2023-02-15T08:41:30;16.03;;;9.63;;
16965;SDS011;8599;47.852;12.070;2023-02-15T08:43:59;16.83;;;10.83;;
16965;SDS011;8599;47.852;12.070;2023-02-15T08:46:29;14.83;;;9.70;;
16965;SDS011;8599;47.852;12.070;2023-02-15T08:48:58;18.77;;;10.53;;
16965;SDS011;8599;47.852;12.070;2023-02-15T08:51:28;20.80;;;10.43;;
16965;SDS011;8599;47.852;12.070;2023-02-15T08:53:57;18.57;;;10.47;;
16965;SDS011;8599;47.852;12.070;2023-02-15T08:56:26;20.57;;;11.07;;
16965;SDS011;8599;47.852;12.070;2023-02-15T08:58:55;18.73;;;10.63;;
16965;SDS011;8599;47.852;12.070;2023-02-15T09:01:23;22.33;;;10.90;;
16965;SDS011;8599;47.852;12.070;2023-02-15T09:03:54;24.30;;;10.23;;
16965;SDS011;8599;47.852;12.070;2023-02-15T09:06:22;15.50;;;10.33;;
16965;SDS011;8599;47.852;12.070;2023-02-15T09:08:51;19.53;;;9.77;;
16965;SDS011;8599;47.852;12.070;2023-02-15T09:11:19;14.13;;;9.53;;
16965;SDS011;8599;47.852;12.070;2023-02-15T09:13:49;22.03;;;10.93;;
16965;SDS011;8599;47.852;12.070;2023-02-15T09:16:17;18.90;;;11.20;;
16965;SDS011;8599;47.852;12.070;2023-02-15T09:18:44;17.57;;;10.87;;
16965;SDS011;8599;47.852;12.070;2023-02-15T09:21:12;18.60;;;10.00;;
16965;SDS011;8599;47.852;12.070;2023-02-15T09:23:40;18.13;;;11.10;;
16965;SDS011;8599;47.852;12.070;2023-02-15T09:26:10;17.67;;;10.77;;
16965;SDS011;8599;47.852;12.070;2023-02-15T09:28:38;22.20;;;11.57;;
16965;SDS011;8599;47.852;12.070;2023-02-15T09:31:08;19.53;;;10.70;;
16965;SDS011;8599;47.852;12.070;2023-02-15T09:33:36;18.60;;;11.03;;
16965;SDS011;8599;47.852;12.070;2023-02-15T09:36:04;18.37;;;11.47;;
16965;SDS011;8599;47.852;12.070;2023-02-15T09:38:39;22.20;;;11.87;;
16965;SDS011;8599;47.852;12.070;2023-02-15T09:41:11;21.13;;;11.53;;
16965;SDS011;8599;47.852;12.070;2023-02-15T09:43:51;20.63;;;10.60;;
16965;SDS011;8599;47.852;12.070;2023-02-15T09:46:33;19.07;;;11.03;;
16965;SDS011;8599;47.852;12.070;2023-02-15T09:49:13;23.70;;;12.87;;
16965;SDS011;8599;47.852;12.070;2023-02-15T09:55:03;19.30;;;11.17;;
16965;SDS011;8599;47.852;12.070;2023-02-15T09:57:40;19.77;;;10.73;;
16965;SDS011;8599;47.852;12.070;2023-02-15T10:00:15;22.47;;;14.07;;
16965;SDS011;8599;47.852;12.070;2023-02-15T10:02:54;19.03;;;11.87;;
16965;SDS011;8599;47.852;12.070;2023-02-15T10:05:38;26.00;;;15.70;;
16965;SDS011;8599;47.852;12.070;2023-02-15T10:08:19;23.30;;;11.90;;
16965;SDS011;8599;47.852;12.070;2023-02-15T10:11:01;22.80;;;12.07;;
16965;SDS011;8599;47.852;12.070;2023-02-15T10:13:50;25.30;;;11.20;;
16965;SDS011;8599;47.852;12.070;2023-02-15T10:16:30;23.07;;;11.93;;
16965;SDS011;8599;47.852;12.070;2023-02-15T10:19:07;20.47;;;11.50;;
16965;SDS011;8599;47.852;12.070;2023-02-15T10:21:46;18.87;;;11.77;;
16965;SDS011;8599;47.852;12.070;2023-02-15T10:27:08;17.27;;;10.13;;
16965;SDS011;8599;47.852;12.070;2023-02-15T10:29:41;18.97;;;11.70;;
16965;SDS011;8599;47.852;12.070;2023-02-15T10:32:16;18.40;;;11.37;;
16965;SDS011;8599;47.852;12.070;2023-02-15T10:34:50;17.67;;;10.90;;
16965;SDS011;8599;47.852;12.070;2023-02-15T10:37:30;17.47;;;10.83;;
16965;SDS011;8599;47.852;12.070;2023-02-15T10:40:11;17.17;;;10.97;;
16965;SDS011;8599;47.852;12.070;2023-02-15T10:42:50;21.53;;;11.63;;
16965;SDS011;8599;47.852;12.070;2023-02-15T10:45:29;19.27;;;12.00;;
16965;SDS011;8599;47.852;12.070;2023-02-15T10:48:12;21.83;;;12.47;;
16965;SDS011;8599;47.852;12.070;2023-02-15T10:50:57;17.80;;;11.27;;
16965;SDS011;8599;47.852;12.070;2023-02-15T10:53:37;18.97;;;11.67;;
16965;SDS011;8599;47.852;12.070;2023-02-15T10:56:16;16.17;;;10.13;;
16965;SDS011;8599;47.852;12.070;2023-02-15T10:58:51;18.73;;;10.87;;
16965;SDS011;8599;47.852;12.070;2023-02-15T11:01:30;22.20;;;11.17;;
16965;SDS011;8599;47.852;12.070;2023-02-15T11:04:12;16.57;;;11.27;;
16965;SDS011;8599;47.852;12.070;2023-02-15T11:06:59;16.87;;;10.53;;
16965;SDS011;8599;47.852;12.070;2023-02-15T11:09:33;14.93;;;10.37;;
16965;SDS011;8599;47.852;12.070;2023-02-15T11:12:04;14.13;;;10.27;;
16965;SDS011;8599;47.852;12.070;2023-02-15T11:14:39;17.20;;;10.27;;
16965;SDS011;8599;47.852;12.070;2023-02-15T11:17:13;15.80;;;10.70;;
16965;SDS011;8599;47.852;12.070;2023-02-15T11:19:46;17.87;;;10.57;;
16965;SDS011;8599;47.852;12.070;2023-02-15T11:22:18;14.77;;;9.90;;
16965;SDS011;8599;47.852;12.070;2023-02-15T11:24:45;17.90;;;11.00;;
16965;SDS011;8599;47.852;12.070;2023-02-15T11:27:17;14.73;;;10.27;;
16965;SDS011;8599;47.852;12.070;2023-02-15T11:29:50;16.37;;;10.97;;
16965;SDS011;8599;47.852;12.070;2023-02-15T11:32:25;23.83;;;11.73;;
16965;SDS011;8599;47.852;12.070;2023-02-15T11:34:55;14.73;;;10.60;;
16965;SDS011;8599;47.852;12.070;2023-02-15T11:37:27;19.13;;;11.80;;
16965;SDS011;8599;47.852;12.070;2023-02-15T11:40:00;16.13;;;10.23;;
16965;SDS011;8599;47.852;12.070;2023-02-15T11:42:29;16.33;;;11.40;;
16965;SDS011;8599;47.852;12.070;2023-02-15T11:44:58;18.13;;;10.33;;
16965;SDS011;8599;47.852;12.070;2023-02-15T11:47:32;18.27;;;10.90;;
16965;SDS011;8599;47.852;12.070;2023-02-15T11:49:59;18.07;;;11.47;;
16965;SDS011;8599;47.852;12.070;2023-02-15T11:52:25;17.57;;;11.10;;
16965;SDS011;8599;47.852;12.070;2023-02-15T11:54:52;14.80;;;10.87;;
16965;SDS011;8599;47.852;12.070;2023-02-15T11:57:22;15.80;;;10.73;;
16965;SDS011;8599;47.852;12.070;2023-02-15T11:59:56;12.27;;;9.57;;
16965;SDS011;8599;47.852;12.070;2023-02-15T12:02:29;14.57;;;10.87;;
16965;SDS011;8599;47.852;12.070;2023-02-15T12:05:00;17.60;;;10.77;;
16965;SDS011;8599;47.852;12.070;2023-02-15T12:07:32;15.80;;;10.13;;
16965;SDS011;8599;47.852;12.070;2023-02-15T12:10:03;14.60;;;9.10;;
16965;SDS011;8599;47.852;12.070;2023-02-15T12:12:37;13.50;;;10.10;;
16965;SDS011;8599;47.852;12.070;2023-02-15T12:15:04;15.43;;;10.43;;
16965;SDS011;8599;47.852;12.070;2023-02-15T12:17:34;13.67;;;9.40;;
16965;SDS011;8599;47.852;12.070;2023-02-15T12:20:06;15.87;;;10.00;;
16965;SDS011;8599;47.852;12.070;2023-02-15T12:22:48;12.73;;;9.37;;
16965;SDS011;8599;47.852;12.070;2023-02-15T12:25:20;11.03;;;8.70;;
16965;SDS011;8599;47.852;12.070;2023-02-15T12:27:48;11.23;;;8.80;;
16965;SDS011;8599;47.852;12.070;2023-02-15T12:30:17;14.73;;;9.07;;
16965;SDS011;8599;47.852;12.070;2023-02-15T12:32:49;12.87;;;9.33;;
16965;SDS011;8599;47.852;12.070;2023-02-15T12:35:21;17.70;;;9.67;;
16965;SDS011;8599;47.852;12.070;2023-02-15T12:37:54;13.03;;;8.53;;
16965;SDS011;8599;47.852;12.070;2023-02-15T12:40:23;13.80;;;8.93;;
16965;SDS011;8599;47.852;12.070;2023-02-15T12:42:52;11.37;;;8.20;;
16965;SDS011;8599;47.852;12.070;2023-02-15T12:45:21;13.53;;;8.77;;
16965;SDS011;8599;47.852;12.070;2023-02-15T12:50:41;14.83;;;8.30;;
16965;SDS011;8599;47.852;12.070;2023-02-15T12:53:13;11.37;;;8.10;;
16965;SDS011;8599;47.852;12.070;2023-02-15T12:55:49;11.77;;;9.23;;
16965;SDS011;8599;47.852;12.070;2023-02-15T12:58:18;13.80;;;8.80;;
16965;SDS011;8599;47.852;12.070;2023-02-15T13:00:47;11.33;;;8.60;;
16965;SDS011;8599;47.852;12.070;2023-02-15T13:03:17;12.87;;;8.53;;
16965;SDS011;8599;47.852;12.070;2023-02-15T13:05:46;13.27;;;8.57;;
16965;SDS011;8599;47.852;12.070;2023-02-15T13:08:17;15.23;;;8.80;;
16965;SDS011;8599;47.852;12.070;2023-02-15T13:10:52;15.40;;;9.13;;
16965;SDS011;8599;47.852;12.070;2023-02-15T13:13:22;14.43;;;8.93;;
16965;SDS011;8599;47.852;12.070;2023-02-15T13:15:53;10.83;;;8.07;;
16965;SDS011;8599;47.852;12.070;2023-02-15T13:18:28;11.27;;;8.07;;
16965;SDS011;8599;47.852;12.070;2023-02-15T13:20:58;14.20;;;9.37;;
16965;SDS011;8599;47.852;12.070;2023-02-15T13:23:32;11.93;;;7.77;;
16965;SDS011;8599;47.852;12.070;2023-02-15T13:26:02;11.80;;;8.43;;
16965;SDS011;8599;47.852;12.070;2023-02-15T13:28:32;10.37;;;7.30;;
16965;SDS011;8599;47.852;12.070;2023-02-15T13:31:07;15.10;;;8.07;;
16965;SDS011;8599;47.852;12.070;2023-02-15T13:33:42;13.40;;;8.37;;
16965;SDS011;8599;47.852;12.070;2023-02-15T13:36:12;11.10;;;7.93;;
16965;SDS011;8599;47.852;12.070;2023-02-15T13:38:57;9.70;;;7.73;;
16965;SDS011;8599;47.852;12.070;2023-02-15T13:41:30;13.83;;;7.77;;
16965;SDS011;8599;47.852;12.070;2023-02-15T13:44:03;10.77;;;7.97;;
16965;SDS011;8599;47.852;12.070;2023-02-15T13:46:40;11.63;;;7.37;;
16965;SDS011;8599;47.852;12.070;2023-02-15T13:49:21;12.90;;;8.07;;
16965;SDS011;8599;47.852;12.070;2023-02-15T13:52:01;13.60;;;8.00;;
16965;SDS011;8599;47.852;12.070;2023-02-15T13:54:36;11.77;;;7.53;;
16965;SDS011;8599;47.852;12.070;2023-02-15T13:57:40;9.60;;;7.53;;
16965;SDS011;8599;47.852;12.070;2023-02-15T14:00:21;7.93;;;6.70;;
16965;SDS011;8599;47.852;12.070;2023-02-15T14:02:56;12.73;;;7.67;;
16965;SDS011;8599;47.852;12.070;2023-02-15T14:05:49;10.97;;;8.03;;
16965;SDS011;8599;47.852;12.070;2023-02-15T14:08:43;13.90;;;8.57;;
16965;SDS011;8599;47.852;12.070;2023-02-15T14:11:20;11.30;;;7.53;;
16965;SDS011;8599;47.852;12.070;2023-02-15T14:16:53;10.23;;;7.77;;
16965;SDS011;8599;47.852;12.070;2023-02-15T14:19:24;12.57;;;7.80;;
16965;SDS011;8599;47.852;12.070;2023-02-15T14:21:58;13.30;;;8.23;;
16965;SDS011;8599;47.852;12.070;2023-02-15T14:24:31;11.73;;;8.00;;
16965;SDS011;8599;47.852;12.070;2023-02-15T14:27:06;17.20;;;7.70;;
16965;SDS011;8599;47.852;12.070;2023-02-15T14:29:46;18.10;;;8.20;;
16965;SDS011;8599;47.852;12.070;2023-02-15T14:32:16;11.30;;;8.37;;
16965;SDS011;8599;47.852;12.070;2023-02-15T14:34:48;10.53;;;7.77;;
16965;SDS011;8599;47.852;12.070;2023-02-15T14:37:21;13.53;;;7.90;;
16965;SDS011;8599;47.852;12.070;2023-02-15T14:39:55;12.50;;;9.03;;
16965;SDS011;8599;47.852;12.070;2023-02-15T14:42:45;10.37;;;7.17;;
16965;SDS011;8599;47.852;12.070;2023-02-15T14:45:21;14.17;;;8.70;;
16965;SDS011;8599;47.852;12.070;2023-02-15T14:47:55;12.13;;;6.77;;
16965;SDS011;8599;47.852;12.070;2023-02-15T14:50:39;11.47;;;7.10;;
16965;SDS011;8599;47.852;12.070;2023-02-15T14:53:20;12.53;;;7.83;;
16965;SDS011;8599;47.852;12.070;2023-02-15T14:56:17;10.80;;;8.07;;
16965;SDS011;8599;47.852;12.070;2023-02-15T14:58:59;10.77;;;7.50;;
16965;SDS011;8599;47.852;12.070;2023-02-15T15:01:39;10.17;;;6.93;;
16965;SDS011;8599;47.852;12.070;2023-02-15T15:04:07;10.10;;;7.90;;
16965;SDS011;8599;47.852;12.070;2023-02-15T15:06:37;8.93;;;7.03;;
16965;SDS011;8599;47.852;12.070;2023-02-15T15:09:11;10.77;;;7.37;;
16965;SDS011;8599;47.852;12.070;2023-02-15T15:11:46;9.50;;;6.47;;